sensor_id;sensor_type;location;lat;lon;timestamp;P1;durP1;ratioP1;P2;durP2;ratioP2
727;SDS011;347;48.780;9.158;2023-05-20T00:00:05;9.30;;;8.80;;
727;SDS011;347;48.780;9.158;2023-05-20T00:02:32;9.57;;;8.77;;
727;SDS011;347;48.780;9.158;2023-05-20T00:04:58;9.50;;;9.00;;
727;SDS011;347;48.780;9.158;2023-05-20T00:07:23;10.10;;;9.53;;
727;SDS011;347;48.780;9.158;2023-05-20T00:09:49;10.10;;;9.57;;
727;SDS011;347;48.780;9.158;2023-05-20T00:12:14;8.87;;;8.40;;
727;SDS011;347;48.780;9.158;2023-05-20T00:14:41;10.23;;;9.53;;
727;SDS011;347;48.780;9.158;2023-05-20T00:17:06;9.17;;;8.67;;
727;SDS011;347;48.780;9.158;2023-05-20T00:19:32;9.03;;;8.53;;
727;SDS011;347;48.780;9.158;2023-05-20T00:21:57;9.97;;;9.20;;
727;SDS011;347;48.780;9.158;2023-05-20T00:24:23;10.23;;;9.63;;
727;SDS011;347;48.780;9.158;2023-05-20T00:26:49;11.00;;;10.00;;
727;SDS011;347;48.780;9.158;2023-05-20T00:29:15;10.07;;;9.37;;
727;SDS011;347;48.780;9.158;2023-05-20T00:31:40;9.33;;;8.80;;
727;SDS011;347;48.780;9.158;2023-05-20T00:34:06;10.40;;;9.67;;
727;SDS011;347;48.780;9.158;2023-05-20T00:36:32;9.90;;;9.30;;
727;SDS011;347;48.780;9.158;2023-05-20T00:38:57;10.63;;;10.00;;
727;SDS011;347;48.780;9.158;2023-05-20T00:41:23;11.73;;;11.03;;
727;SDS011;347;48.780;9.158;2023-05-20T00:43:51;10.80;;;10.20;;
727;SDS011;347;48.780;9.158;2023-05-20T00:46:18;10.40;;;9.87;;
727;SDS011;347;48.780;9.158;2023-05-20T00:48:44;11.30;;;10.60;;
727;SDS011;347;48.780;9.158;2023-05-20T00:51:10;10.43;;;9.63;;
727;SDS011;347;48.780;9.158;2023-05-20T00:53:36;11.17;;;10.37;;
727;SDS011;347;48.780;9.158;2023-05-20T00:56:03;10.50;;;9.80;;
727;SDS011;347;48.780;9.158;2023-05-20T00:58:29;9.67;;;8.97;;
727;SDS011;347;48.780;9.158;2023-05-20T01:00:55;10.80;;;10.20;;
727;SDS011;347;48.780;9.158;2023-05-20T01:03:20;10.80;;;10.20;;
727;SDS011;347;48.780;9.158;2023-05-20T01:05:46;11.10;;;10.07;;
727;SDS011;347;48.780;9.158;2023-05-20T01:08:11;10.03;;;9.43;;
727;SDS011;347;48.780;9.158;2023-05-20T01:10:38;11.37;;;10.43;;
727;SDS011;347;48.780;9.158;2023-05-20T01:13:07;10.93;;;10.23;;
727;SDS011;347;48.780;9.158;2023-05-20T01:15:35;10.30;;;9.80;;
727;SDS011;347;48.780;9.158;2023-05-20T01:18:04;10.17;;;9.63;;
727;SDS011;347;48.780;9.158;2023-05-20T01:20:34;10.47;;;9.97;;
727;SDS011;347;48.780;9.158;2023-05-20T01:23:01;11.00;;;10.30;;
727;SDS011;347;48.780;9.158;2023-05-20T01:25:27;10.43;;;9.93;;
727;SDS011;347;48.780;9.158;2023-05-20T01:27:53;11.87;;;11.20;;
727;SDS011;347;48.780;9.158;2023-05-20T01:30:21;10.47;;;9.97;;
727;SDS011;347;48.780;9.158;2023-05-20T01:33:03;10.30;;;9.80;;
727;SDS011;347;48.780;9.158;2023-05-20T01:35:33;11.70;;;10.90;;
727;SDS011;347;48.780;9.158;2023-05-20T01:37:59;10.80;;;10.20;;
727;SDS011;347;48.780;9.158;2023-05-20T01:40:26;11.20;;;10.47;;
727;SDS011;347;48.780;9.158;2023-05-20T01:42:52;10.80;;;10.10;;
727;SDS011;347;48.780;9.158;2023-05-20T01:45:20;11.93;;;11.20;;
727;SDS011;347;48.780;9.158;2023-05-20T01:47:47;11.30;;;10.60;;
727;SDS011;347;48.780;9.158;2023-05-20T01:50:13;10.60;;;10.10;;
727;SDS011;347;48.780;9.158;2023-05-20T01:52:39;11.30;;;10.70;;
727;SDS011;347;48.780;9.158;2023-05-20T01:55:05;10.90;;;10.30;;
727;SDS011;347;48.780;9.158;2023-05-20T01:57:30;10.40;;;9.90;;
727;SDS011;347;48.780;9.158;2023-05-20T01:59:56;11.40;;;10.57;;
727;SDS011;347;48.780;9.158;2023-05-20T02:02:21;10.87;;;10.27;;
727;SDS011;347;48.780;9.158;2023-05-20T02:04:47;11.50;;;10.80;;
727;SDS011;347;48.780;9.158;2023-05-20T02:07:14;11.57;;;10.77;;
727;SDS011;347;48.780;9.158;2023-05-20T02:09:40;10.53;;;10.03;;
727;SDS011;347;48.780;9.158;2023-05-20T02:12:06;12.03;;;11.13;;
727;SDS011;347;48.780;9.158;2023-05-20T02:14:32;11.47;;;10.87;;
727;SDS011;347;48.780;9.158;2023-05-20T02:16:58;12.57;;;11.77;;
727;SDS011;347;48.780;9.158;2023-05-20T02:19:23;12.27;;;11.60;;
727;SDS011;347;48.780;9.158;2023-05-20T02:21:49;11.83;;;10.90;;
727;SDS011;347;48.780;9.158;2023-05-20T02:24:15;11.90;;;11.10;;
727;SDS011;347;48.780;9.158;2023-05-20T02:26:41;11.73;;;11.23;;
727;SDS011;347;48.780;9.158;2023-05-20T02:29:08;12.97;;;12.17;;
727;SDS011;347;48.780;9.158;2023-05-20T02:31:33;10.93;;;10.33;;
727;SDS011;347;48.780;9.158;2023-05-20T02:33:59;11.53;;;10.83;;
727;SDS011;347;48.780;9.158;2023-05-20T02:36:25;11.83;;;11.17;;
727;SDS011;347;48.780;9.158;2023-05-20T02:38:51;11.60;;;11.00;;
727;SDS011;347;48.780;9.158;2023-05-20T02:41:20;11.83;;;11.23;;
727;SDS011;347;48.780;9.158;2023-05-20T02:43:46;12.40;;;11.70;;
727;SDS011;347;48.780;9.158;2023-05-20T02:46:11;10.67;;;10.27;;
727;SDS011;347;48.780;9.158;2023-05-20T02:48:37;12.20;;;11.50;;
727;SDS011;347;48.780;9.158;2023-05-20T02:51:02;11.90;;;11.30;;
727;SDS011;347;48.780;9.158;2023-05-20T02:53:29;11.77;;;11.17;;
727;SDS011;347;48.780;9.158;2023-05-20T02:55:56;12.20;;;11.60;;
727;SDS011;347;48.780;9.158;2023-05-20T02:58:21;11.50;;;10.80;;
727;SDS011;347;48.780;9.158;2023-05-20T03:00:50;12.33;;;11.73;;
727;SDS011;347;48.780;9.158;2023-05-20T03:03:19;11.40;;;10.90;;
727;SDS011;347;48.780;9.158;2023-05-20T03:05:44;12.03;;;11.43;;
727;SDS011;347;48.780;9.158;2023-05-20T03:08:10;12.43;;;11.80;;
727;SDS011;347;48.780;9.158;2023-05-20T03:10:36;10.97;;;10.37;;
727;SDS011;347;48.780;9.158;2023-05-20T03:13:03;11.83;;;11.23;;
727;SDS011;347;48.780;9.158;2023-05-20T03:15:32;12.90;;;12.20;;
727;SDS011;347;48.780;9.158;2023-05-20T03:17:59;11.77;;;10.97;;
727;SDS011;347;48.780;9.158;2023-05-20T03:20:25;12.53;;;11.60;;
727;SDS011;347;48.780;9.158;2023-05-20T03:22:53;11.67;;;10.97;;
727;SDS011;347;48.780;9.158;2023-05-20T03:25:18;11.20;;;10.60;;
727;SDS011;347;48.780;9.158;2023-05-20T03:27:45;12.20;;;11.60;;
727;SDS011;347;48.780;9.158;2023-05-20T03:30:10;12.17;;;11.57;;
727;SDS011;347;48.780;9.158;2023-05-20T03:32:36;11.93;;;11.37;;
727;SDS011;347;48.780;9.158;2023-05-20T03:35:02;12.10;;;11.60;;
727;SDS011;347;48.780;9.158;2023-05-20T03:37:27;12.23;;;11.60;;
727;SDS011;347;48.780;9.158;2023-05-20T03:39:53;12.10;;;11.50;;
727;SDS011;347;48.780;9.158;2023-05-20T03:42:18;12.00;;;11.40;;
727;SDS011;347;48.780;9.158;2023-05-20T03:44:44;12.43;;;11.83;;
727;SDS011;347;48.780;9.158;2023-05-20T03:47:10;11.30;;;10.80;;
727;SDS011;347;48.780;9.158;2023-05-20T03:49:35;12.90;;;12.30;;
727;SDS011;347;48.780;9.158;2023-05-20T03:52:01;11.93;;;11.43;;
727;SDS011;347;48.780;9.158;2023-05-20T03:54:27;11.90;;;11.40;;
727;SDS011;347;48.780;9.158;2023-05-20T03:56:55;12.93;;;12.23;;
727;SDS011;347;48.780;9.158;2023-05-20T03:59:20;12.37;;;11.87;;
727;SDS011;347;48.780;9.158;2023-05-20T04:01:46;11.80;;;11.30;;
727;SDS011;347;48.780;9.158;2023-05-20T04:04:12;12.13;;;11.53;;
727;SDS011;347;48.780;9.158;2023-05-20T04:06:38;12.63;;;12.03;;
727;SDS011;347;48.780;9.158;2023-05-20T04:09:04;12.87;;;12.17;;
727;SDS011;347;48.780;9.158;2023-05-20T04:11:30;12.00;;;11.50;;
727;SDS011;347;48.780;9.158;2023-05-20T04:13:55;12.13;;;11.43;;
727;SDS011;347;48.780;9.158;2023-05-20T04:16:22;12.40;;;11.70;;
727;SDS011;347;48.780;9.158;2023-05-20T04:18:48;13.67;;;12.87;;
727;SDS011;347;48.780;9.158;2023-05-20T04:21:14;12.37;;;11.77;;
727;SDS011;347;48.780;9.158;2023-05-20T04:23:40;12.97;;;12.37;;
727;SDS011;347;48.780;9.158;2023-05-20T04:26:05;12.83;;;12.23;;
727;SDS011;347;48.780;9.158;2023-05-20T04:28:31;12.87;;;12.07;;
727;SDS011;347;48.780;9.158;2023-05-20T04:30:57;12.53;;;11.83;;
727;SDS011;347;48.780;9.158;2023-05-20T04:33:24;12.23;;;11.63;;
727;SDS011;347;48.780;9.158;2023-05-20T04:35:50;14.40;;;13.60;;
727;SDS011;347;48.780;9.158;2023-05-20T04:38:16;12.57;;;11.87;;
727;SDS011;347;48.780;9.158;2023-05-20T04:40:41;12.00;;;11.50;;
727;SDS011;347;48.780;9.158;2023-05-20T04:43:07;12.30;;;11.70;;
727;SDS011;347;48.780;9.158;2023-05-20T04:45:33;12.40;;;11.80;;
727;SDS011;347;48.780;9.158;2023-05-20T04:47:59;12.87;;;12.17;;
727;SDS011;347;48.780;9.158;2023-05-20T04:50:25;13.30;;;12.57;;
727;SDS011;347;48.780;9.158;2023-05-20T04:52:51;12.90;;;12.20;;
727;SDS011;347;48.780;9.158;2023-05-20T04:55:16;13.00;;;12.40;;
727;SDS011;347;48.780;9.158;2023-05-20T04:57:43;11.87;;;11.37;;
727;SDS011;347;48.780;9.158;2023-05-20T05:00:10;13.83;;;13.13;;
727;SDS011;347;48.780;9.158;2023-05-20T05:02:36;13.17;;;12.57;;
727;SDS011;347;48.780;9.158;2023-05-20T05:05:02;13.90;;;13.17;;
727;SDS011;347;48.780;9.158;2023-05-20T05:07:28;14.90;;;13.60;;
727;SDS011;347;48.780;9.158;2023-05-20T05:09:53;13.30;;;12.40;;
727;SDS011;347;48.780;9.158;2023-05-20T05:12:18;11.67;;;11.07;;
727;SDS011;347;48.780;9.158;2023-05-20T05:14:44;12.63;;;12.03;;
727;SDS011;347;48.780;9.158;2023-05-20T05:17:09;12.70;;;12.10;;
727;SDS011;347;48.780;9.158;2023-05-20T05:19:35;14.00;;;13.30;;
727;SDS011;347;48.780;9.158;2023-05-20T05:22:00;13.90;;;13.20;;
727;SDS011;347;48.780;9.158;2023-05-20T05:24:27;13.70;;;13.00;;
727;SDS011;347;48.780;9.158;2023-05-20T05:26:52;13.10;;;12.50;;
727;SDS011;347;48.780;9.158;2023-05-20T05:29:18;14.00;;;13.17;;
727;SDS011;347;48.780;9.158;2023-05-20T05:31:44;14.60;;;13.70;;
727;SDS011;347;48.780;9.158;2023-05-20T05:34:10;14.20;;;13.50;;
727;SDS011;347;48.780;9.158;2023-05-20T05:36:37;14.17;;;13.37;;
727;SDS011;347;48.780;9.158;2023-05-20T05:39:03;13.33;;;12.70;;
727;SDS011;347;48.780;9.158;2023-05-20T05:41:29;13.37;;;12.67;;
727;SDS011;347;48.780;9.158;2023-05-20T05:43:55;15.30;;;14.53;;
727;SDS011;347;48.780;9.158;2023-05-20T05:46:20;14.50;;;13.77;;
727;SDS011;347;48.780;9.158;2023-05-20T05:48:46;13.90;;;13.20;;
727;SDS011;347;48.780;9.158;2023-05-20T05:51:14;14.27;;;13.57;;
727;SDS011;347;48.780;9.158;2023-05-20T05:53:39;13.37;;;12.67;;
727;SDS011;347;48.780;9.158;2023-05-20T05:56:05;14.90;;;14.10;;
727;SDS011;347;48.780;9.158;2023-05-20T05:58:31;13.93;;;13.10;;
727;SDS011;347;48.780;9.158;2023-05-20T06:00:57;15.10;;;14.20;;
727;SDS011;347;48.780;9.158;2023-05-20T06:03:22;14.13;;;13.23;;
727;SDS011;347;48.780;9.158;2023-05-20T06:05:48;12.70;;;12.10;;
727;SDS011;347;48.780;9.158;2023-05-20T06:08:13;12.13;;;11.63;;
727;SDS011;347;48.780;9.158;2023-05-20T06:10:39;14.10;;;13.30;;
727;SDS011;347;48.780;9.158;2023-05-20T06:13:05;13.60;;;12.83;;
727;SDS011;347;48.780;9.158;2023-05-20T06:15:30;13.33;;;12.67;;
727;SDS011;347;48.780;9.158;2023-05-20T06:17:56;23.33;;;14.13;;
727;SDS011;347;48.780;9.158;2023-05-20T06:20:21;14.67;;;13.93;;
727;SDS011;347;48.780;9.158;2023-05-20T06:22:47;14.87;;;14.07;;
727;SDS011;347;48.780;9.158;2023-05-20T06:25:12;12.87;;;12.27;;
727;SDS011;347;48.780;9.158;2023-05-20T06:27:38;14.27;;;13.57;;
727;SDS011;347;48.780;9.158;2023-05-20T06:30:04;14.10;;;13.30;;
727;SDS011;347;48.780;9.158;2023-05-20T06:32:30;13.67;;;12.93;;
727;SDS011;347;48.780;9.158;2023-05-20T06:34:55;13.60;;;12.90;;
727;SDS011;347;48.780;9.158;2023-05-20T06:37:21;14.83;;;14.03;;
727;SDS011;347;48.780;9.158;2023-05-20T06:39:50;14.27;;;13.57;;
727;SDS011;347;48.780;9.158;2023-05-20T06:42:18;14.67;;;13.50;;
727;SDS011;347;48.780;9.158;2023-05-20T06:44:44;14.57;;;13.60;;
727;SDS011;347;48.780;9.158;2023-05-20T06:47:12;12.67;;;12.07;;
727;SDS011;347;48.780;9.158;2023-05-20T06:49:39;14.87;;;14.07;;
727;SDS011;347;48.780;9.158;2023-05-20T06:52:06;13.70;;;13.00;;
727;SDS011;347;48.780;9.158;2023-05-20T06:54:31;14.27;;;13.57;;
727;SDS011;347;48.780;9.158;2023-05-20T06:56:59;15.50;;;14.70;;
727;SDS011;347;48.780;9.158;2023-05-20T06:59:25;15.37;;;14.23;;
727;SDS011;347;48.780;9.158;2023-05-20T07:01:50;14.73;;;13.97;;
727;SDS011;347;48.780;9.158;2023-05-20T07:04:16;13.93;;;13.17;;
727;SDS011;347;48.780;9.158;2023-05-20T07:06:41;13.77;;;13.07;;
727;SDS011;347;48.780;9.158;2023-05-20T07:09:07;14.43;;;13.63;;
727;SDS011;347;48.780;9.158;2023-05-20T07:11:33;13.90;;;13.10;;
727;SDS011;347;48.780;9.158;2023-05-20T07:13:58;13.13;;;12.47;;
727;SDS011;347;48.780;9.158;2023-05-20T07:16:24;14.10;;;13.20;;
727;SDS011;347;48.780;9.158;2023-05-20T07:18:49;13.20;;;12.60;;
727;SDS011;347;48.780;9.158;2023-05-20T07:21:15;13.97;;;12.93;;
727;SDS011;347;48.780;9.158;2023-05-20T07:23:41;13.67;;;12.97;;
727;SDS011;347;48.780;9.158;2023-05-20T07:26:07;13.80;;;13.00;;
727;SDS011;347;48.780;9.158;2023-05-20T07:28:32;13.93;;;13.23;;
727;SDS011;347;48.780;9.158;2023-05-20T07:30:59;13.80;;;13.07;;
727;SDS011;347;48.780;9.158;2023-05-20T07:33:25;14.40;;;13.60;;
727;SDS011;347;48.780;9.158;2023-05-20T07:35:50;13.17;;;12.57;;
727;SDS011;347;48.780;9.158;2023-05-20T07:38:18;13.70;;;12.90;;
727;SDS011;347;48.780;9.158;2023-05-20T07:40:43;13.20;;;12.60;;
727;SDS011;347;48.780;9.158;2023-05-20T07:43:09;13.87;;;13.20;;
727;SDS011;347;48.780;9.158;2023-05-20T07:45:35;13.93;;;13.13;;
727;SDS011;347;48.780;9.158;2023-05-20T07:48:01;12.43;;;11.77;;
727;SDS011;347;48.780;9.158;2023-05-20T07:50:26;14.47;;;13.67;;
727;SDS011;347;48.780;9.158;2023-05-20T07:52:52;13.20;;;12.27;;
727;SDS011;347;48.780;9.158;2023-05-20T07:55:17;13.57;;;12.70;;
727;SDS011;347;48.780;9.158;2023-05-20T07:57:43;13.27;;;12.60;;
727;SDS011;347;48.780;9.158;2023-05-20T08:00:09;13.23;;;12.53;;
727;SDS011;347;48.780;9.158;2023-05-20T08:02:36;12.90;;;12.30;;
727;SDS011;347;48.780;9.158;2023-05-20T08:05:01;12.80;;;11.90;;
727;SDS011;347;48.780;9.158;2023-05-20T08:07:27;12.93;;;12.10;;
727;SDS011;347;48.780;9.158;2023-05-20T08:09:52;13.27;;;12.67;;
727;SDS011;347;48.780;9.158;2023-05-20T08:12:18;12.70;;;12.10;;
727;SDS011;347;48.780;9.158;2023-05-20T08:14:43;13.80;;;13.10;;
727;SDS011;347;48.780;9.158;2023-05-20T08:17:09;14.03;;;13.07;;
727;SDS011;347;48.780;9.158;2023-05-20T08:19:34;13.27;;;12.47;;
727;SDS011;347;48.780;9.158;2023-05-20T08:22:00;14.37;;;13.57;;
727;SDS011;347;48.780;9.158;2023-05-20T08:24:26;14.73;;;13.80;;
727;SDS011;347;48.780;9.158;2023-05-20T08:26:51;14.07;;;13.27;;
727;SDS011;347;48.780;9.158;2023-05-20T08:29:17;12.70;;;12.10;;
727;SDS011;347;48.780;9.158;2023-05-20T08:31:43;14.27;;;13.37;;
727;SDS011;347;48.780;9.158;2023-05-20T08:34:08;14.40;;;13.60;;
727;SDS011;347;48.780;9.158;2023-05-20T08:36:34;14.83;;;13.93;;
727;SDS011;347;48.780;9.158;2023-05-20T08:38:59;13.70;;;13.00;;
727;SDS011;347;48.780;9.158;2023-05-20T08:41:25;13.90;;;13.17;;
727;SDS011;347;48.780;9.158;2023-05-20T08:43:51;14.90;;;14.10;;
727;SDS011;347;48.780;9.158;2023-05-20T08:46:18;14.47;;;13.67;;
727;SDS011;347;48.780;9.158;2023-05-20T08:48:45;14.83;;;14.03;;
727;SDS011;347;48.780;9.158;2023-05-20T08:51:12;13.03;;;12.33;;
727;SDS011;347;48.780;9.158;2023-05-20T08:53:40;14.00;;;13.20;;
727;SDS011;347;48.780;9.158;2023-05-20T08:56:05;14.37;;;13.57;;
727;SDS011;347;48.780;9.158;2023-05-20T08:58:32;14.50;;;13.70;;
727;SDS011;347;48.780;9.158;2023-05-20T09:00:58;14.40;;;13.60;;
727;SDS011;347;48.780;9.158;2023-05-20T09:03:23;14.57;;;13.87;;
727;SDS011;347;48.780;9.158;2023-05-20T09:05:49;15.13;;;14.33;;
727;SDS011;347;48.780;9.158;2023-05-20T09:08:15;14.50;;;13.80;;
727;SDS011;347;48.780;9.158;2023-05-20T09:10:41;13.57;;;12.87;;
727;SDS011;347;48.780;9.158;2023-05-20T09:13:07;14.20;;;13.20;;
727;SDS011;347;48.780;9.158;2023-05-20T09:15:34;14.13;;;13.27;;
727;SDS011;347;48.780;9.158;2023-05-20T09:18:04;14.03;;;13.30;;
727;SDS011;347;48.780;9.158;2023-05-20T09:20:32;13.40;;;12.60;;
727;SDS011;347;48.780;9.158;2023-05-20T09:23:01;17.10;;;15.40;;
727;SDS011;347;48.780;9.158;2023-05-20T09:25:28;13.60;;;12.70;;
727;SDS011;347;48.780;9.158;2023-05-20T09:27:54;13.50;;;12.43;;
727;SDS011;347;48.780;9.158;2023-05-20T09:30:20;12.97;;;12.27;;
727;SDS011;347;48.780;9.158;2023-05-20T09:32:56;12.10;;;11.50;;
727;SDS011;347;48.780;9.158;2023-05-20T09:35:23;12.97;;;12.30;;
727;SDS011;347;48.780;9.158;2023-05-20T09:37:56;11.80;;;11.20;;
727;SDS011;347;48.780;9.158;2023-05-20T09:40:23;13.33;;;12.53;;
727;SDS011;347;48.780;9.158;2023-05-20T09:42:54;12.03;;;11.23;;
727;SDS011;347;48.780;9.158;2023-05-20T09:45:23;12.33;;;11.67;;
727;SDS011;347;48.780;9.158;2023-05-20T09:47:49;12.93;;;12.17;;
727;SDS011;347;48.780;9.158;2023-05-20T09:50:16;12.80;;;12.10;;
727;SDS011;347;48.780;9.158;2023-05-20T09:52:45;12.73;;;11.97;;
727;SDS011;347;48.780;9.158;2023-05-20T09:55:13;13.23;;;12.10;;
727;SDS011;347;48.780;9.158;2023-05-20T09:57:41;11.80;;;11.10;;
727;SDS011;347;48.780;9.158;2023-05-20T10:00:07;13.50;;;12.70;;
727;SDS011;347;48.780;9.158;2023-05-20T10:02:34;12.23;;;11.60;;
727;SDS011;347;48.780;9.158;2023-05-20T10:05:01;12.67;;;11.97;;
727;SDS011;347;48.780;9.158;2023-05-20T10:10:47;13.30;;;12.50;;
727;SDS011;347;48.780;9.158;2023-05-20T10:21:56;12.93;;;12.03;;
727;SDS011;347;48.780;9.158;2023-05-20T10:24:32;12.23;;;11.53;;
727;SDS011;347;48.780;9.158;2023-05-20T10:27:03;11.43;;;10.70;;
727;SDS011;347;48.780;9.158;2023-05-20T10:29:43;11.70;;;10.80;;
727;SDS011;347;48.780;9.158;2023-05-20T10:32:25;11.23;;;10.53;;
727;SDS011;347;48.780;9.158;2023-05-20T10:34:52;12.17;;;11.47;;
727;SDS011;347;48.780;9.158;2023-05-20T10:37:24;11.40;;;10.70;;
727;SDS011;347;48.780;9.158;2023-05-20T10:39:52;11.20;;;10.50;;
727;SDS011;347;48.780;9.158;2023-05-20T10:42:35;12.70;;;11.83;;
727;SDS011;347;48.780;9.158;2023-05-20T10:45:01;11.70;;;11.10;;
727;SDS011;347;48.780;9.158;2023-05-20T10:47:27;12.80;;;12.00;;
727;SDS011;347;48.780;9.158;2023-05-20T10:49:53;11.20;;;10.50;;
727;SDS011;347;48.780;9.158;2023-05-20T10:52:19;11.13;;;10.53;;
727;SDS011;347;48.780;9.158;2023-05-20T10:54:57;10.70;;;10.10;;
727;SDS011;347;48.780;9.158;2023-05-20T10:57:27;10.80;;;10.20;;
727;SDS011;347;48.780;9.158;2023-05-20T10:59:54;9.30;;;8.70;;
727;SDS011;347;48.780;9.158;2023-05-20T11:02:20;11.33;;;10.73;;
727;SDS011;347;48.780;9.158;2023-05-20T11:04:54;10.60;;;10.00;;
727;SDS011;347;48.780;9.158;2023-05-20T11:07:28;10.80;;;10.20;;
727;SDS011;347;48.780;9.158;2023-05-20T11:09:56;11.17;;;10.50;;
727;SDS011;347;48.780;9.158;2023-05-20T11:12:25;12.00;;;11.30;;
727;SDS011;347;48.780;9.158;2023-05-20T11:14:54;10.77;;;10.17;;
727;SDS011;347;48.780;9.158;2023-05-20T11:17:20;10.33;;;9.73;;
727;SDS011;347;48.780;9.158;2023-05-20T11:19:46;11.13;;;10.10;;
727;SDS011;347;48.780;9.158;2023-05-20T11:22:12;11.60;;;10.90;;
727;SDS011;347;48.780;9.158;2023-05-20T11:24:37;11.67;;;10.50;;
727;SDS011;347;48.780;9.158;2023-05-20T11:27:03;10.87;;;10.27;;
727;SDS011;347;48.780;9.158;2023-05-20T11:29:29;10.53;;;9.93;;
727;SDS011;347;48.780;9.158;2023-05-20T11:31:56;11.73;;;10.90;;
727;SDS011;347;48.780;9.158;2023-05-20T11:34:23;11.20;;;10.40;;
727;SDS011;347;48.780;9.158;2023-05-20T11:36:55;10.93;;;10.30;;
727;SDS011;347;48.780;9.158;2023-05-20T11:39:21;10.13;;;9.63;;
727;SDS011;347;48.780;9.158;2023-05-20T11:41:47;10.80;;;10.20;;
727;SDS011;347;48.780;9.158;2023-05-20T11:44:12;11.37;;;10.67;;
727;SDS011;347;48.780;9.158;2023-05-20T11:46:45;11.53;;;10.83;;
727;SDS011;347;48.780;9.158;2023-05-20T11:49:12;10.43;;;9.83;;
727;SDS011;347;48.780;9.158;2023-05-20T11:51:38;10.87;;;10.07;;
727;SDS011;347;48.780;9.158;2023-05-20T11:54:04;10.90;;;10.27;;
727;SDS011;347;48.780;9.158;2023-05-20T11:56:37;10.90;;;10.37;;
727;SDS011;347;48.780;9.158;2023-05-20T11:59:05;11.80;;;11.10;;
727;SDS011;347;48.780;9.158;2023-05-20T12:01:34;10.60;;;10.00;;
727;SDS011;347;48.780;9.158;2023-05-20T12:04:04;12.43;;;11.63;;
727;SDS011;347;48.780;9.158;2023-05-20T12:06:30;11.20;;;10.50;;
727;SDS011;347;48.780;9.158;2023-05-20T12:08:57;11.00;;;10.20;;
727;SDS011;347;48.780;9.158;2023-05-20T12:11:25;10.93;;;10.33;;
727;SDS011;347;48.780;9.158;2023-05-20T12:13:50;10.17;;;9.37;;
727;SDS011;347;48.780;9.158;2023-05-20T12:16:16;11.20;;;10.60;;
727;SDS011;347;48.780;9.158;2023-05-20T12:18:41;10.73;;;10.07;;
727;SDS011;347;48.780;9.158;2023-05-20T12:21:07;11.50;;;10.77;;
727;SDS011;347;48.780;9.158;2023-05-20T12:23:33;10.60;;;10.00;;
727;SDS011;347;48.780;9.158;2023-05-20T12:25:59;10.93;;;10.07;;
727;SDS011;347;48.780;9.158;2023-05-20T12:28:24;11.10;;;10.50;;
727;SDS011;347;48.780;9.158;2023-05-20T12:30:50;10.30;;;9.73;;
727;SDS011;347;48.780;9.158;2023-05-20T12:33:15;10.50;;;9.97;;
727;SDS011;347;48.780;9.158;2023-05-20T12:35:41;9.97;;;9.47;;
727;SDS011;347;48.780;9.158;2023-05-20T12:38:07;10.60;;;9.90;;
727;SDS011;347;48.780;9.158;2023-05-20T12:40:33;11.40;;;10.60;;
727;SDS011;347;48.780;9.158;2023-05-20T12:43:00;9.77;;;9.07;;
727;SDS011;347;48.780;9.158;2023-05-20T12:45:27;10.60;;;10.00;;
727;SDS011;347;48.780;9.158;2023-05-20T12:47:53;10.50;;;9.90;;
727;SDS011;347;48.780;9.158;2023-05-20T12:50:19;10.50;;;9.90;;
727;SDS011;347;48.780;9.158;2023-05-20T12:52:45;10.00;;;9.30;;
727;SDS011;347;48.780;9.158;2023-05-20T12:55:11;10.97;;;10.07;;
727;SDS011;347;48.780;9.158;2023-05-20T12:57:39;9.73;;;9.13;;
727;SDS011;347;48.780;9.158;2023-05-20T13:00:06;11.13;;;10.43;;
727;SDS011;347;48.780;9.158;2023-05-20T13:02:33;10.70;;;9.73;;
727;SDS011;347;48.780;9.158;2023-05-20T13:04:58;10.90;;;10.27;;
727;SDS011;347;48.780;9.158;2023-05-20T13:07:24;9.63;;;9.10;;
727;SDS011;347;48.780;9.158;2023-05-20T13:09:50;9.20;;;8.70;;
727;SDS011;347;48.780;9.158;2023-05-20T13:12:16;9.63;;;9.00;;
727;SDS011;347;48.780;9.158;2023-05-20T13:14:42;10.47;;;9.87;;
727;SDS011;347;48.780;9.158;2023-05-20T13:17:07;8.73;;;8.23;;
727;SDS011;347;48.780;9.158;2023-05-20T13:19:33;9.27;;;8.77;;
727;SDS011;347;48.780;9.158;2023-05-20T13:21:59;9.60;;;9.03;;
727;SDS011;347;48.780;9.158;2023-05-20T13:24:24;10.17;;;9.37;;
727;SDS011;347;48.780;9.158;2023-05-20T13:26:50;9.60;;;8.67;;
727;SDS011;347;48.780;9.158;2023-05-20T13:29:15;9.90;;;9.30;;
727;SDS011;347;48.780;9.158;2023-05-20T13:31:41;8.73;;;8.23;;
727;SDS011;347;48.780;9.158;2023-05-20T13:34:07;7.57;;;7.27;;
727;SDS011;347;48.780;9.158;2023-05-20T13:36:33;8.47;;;7.83;;
727;SDS011;347;48.780;9.158;2023-05-20T13:38:59;8.43;;;8.00;;
727;SDS011;347;48.780;9.158;2023-05-20T13:41:24;10.73;;;9.67;;
727;SDS011;347;48.780;9.158;2023-05-20T13:43:54;8.70;;;8.30;;
727;SDS011;347;48.780;9.158;2023-05-20T13:46:20;8.47;;;7.97;;
727;SDS011;347;48.780;9.158;2023-05-20T13:48:45;8.53;;;8.00;;
727;SDS011;347;48.780;9.158;2023-05-20T13:51:11;7.73;;;7.33;;
727;SDS011;347;48.780;9.158;2023-05-20T13:53:37;8.23;;;7.17;;
727;SDS011;347;48.780;9.158;2023-05-20T13:56:03;8.03;;;7.70;;
727;SDS011;347;48.780;9.158;2023-05-20T13:58:29;8.73;;;8.17;;
727;SDS011;347;48.780;9.158;2023-05-20T14:00:55;8.83;;;8.43;;
727;SDS011;347;48.780;9.158;2023-05-20T14:03:21;9.23;;;8.73;;
727;SDS011;347;48.780;9.158;2023-05-20T14:05:46;9.17;;;8.50;;
727;SDS011;347;48.780;9.158;2023-05-20T14:08:12;8.90;;;8.37;;
727;SDS011;347;48.780;9.158;2023-05-20T14:10:37;8.73;;;8.23;;
727;SDS011;347;48.780;9.158;2023-05-20T14:13:03;9.00;;;8.40;;
727;SDS011;347;48.780;9.158;2023-05-20T14:15:29;9.90;;;8.40;;
727;SDS011;347;48.780;9.158;2023-05-20T14:17:57;10.17;;;9.57;;
727;SDS011;347;48.780;9.158;2023-05-20T14:20:23;9.10;;;8.60;;
727;SDS011;347;48.780;9.158;2023-05-20T14:22:49;7.80;;;7.30;;
727;SDS011;347;48.780;9.158;2023-05-20T14:25:15;8.27;;;7.87;;
727;SDS011;347;48.780;9.158;2023-05-20T14:27:41;8.03;;;7.63;;
727;SDS011;347;48.780;9.158;2023-05-20T14:30:07;8.67;;;8.20;;
727;SDS011;347;48.780;9.158;2023-05-20T14:32:33;7.73;;;7.30;;
727;SDS011;347;48.780;9.158;2023-05-20T14:34:59;8.47;;;7.97;;
727;SDS011;347;48.780;9.158;2023-05-20T14:37:25;8.53;;;7.93;;
727;SDS011;347;48.780;9.158;2023-05-20T14:39:51;7.87;;;7.37;;
727;SDS011;347;48.780;9.158;2023-05-20T14:42:20;8.37;;;7.77;;
727;SDS011;347;48.780;9.158;2023-05-20T14:44:46;8.50;;;7.90;;
727;SDS011;347;48.780;9.158;2023-05-20T14:47:12;7.70;;;7.30;;
727;SDS011;347;48.780;9.158;2023-05-20T14:49:42;8.87;;;8.37;;
727;SDS011;347;48.780;9.158;2023-05-20T14:52:09;8.47;;;7.80;;
727;SDS011;347;48.780;9.158;2023-05-20T14:54:35;7.40;;;7.00;;
727;SDS011;347;48.780;9.158;2023-05-20T14:57:00;8.87;;;8.27;;
727;SDS011;347;48.780;9.158;2023-05-20T14:59:26;8.43;;;7.93;;
727;SDS011;347;48.780;9.158;2023-05-20T15:01:51;11.47;;;7.70;;
727;SDS011;347;48.780;9.158;2023-05-20T15:04:17;9.70;;;8.90;;
727;SDS011;347;48.780;9.158;2023-05-20T15:06:42;10.63;;;9.50;;
727;SDS011;347;48.780;9.158;2023-05-20T15:09:08;8.40;;;8.00;;
727;SDS011;347;48.780;9.158;2023-05-20T15:11:34;9.80;;;8.83;;
727;SDS011;347;48.780;9.158;2023-05-20T15:13:59;8.90;;;8.40;;
727;SDS011;347;48.780;9.158;2023-05-20T15:16:25;7.93;;;7.43;;
727;SDS011;347;48.780;9.158;2023-05-20T15:18:51;9.00;;;8.30;;
727;SDS011;347;48.780;9.158;2023-05-20T15:21:17;9.40;;;8.80;;
727;SDS011;347;48.780;9.158;2023-05-20T15:23:42;9.07;;;8.50;;
727;SDS011;347;48.780;9.158;2023-05-20T15:26:08;8.90;;;8.50;;
727;SDS011;347;48.780;9.158;2023-05-20T15:28:37;8.90;;;8.40;;